createdAt,value
2017-04-09T00:00:05.742Z,91.80
2017-04-09T00:01:05.519Z,91.70
2017-04-09T00:02:05.844Z,91.80
2017-04-09T00:03:06.331Z,91.80
2017-04-09T00:04:06.185Z,91.90
2017-04-09T00:05:05.957Z,91.90
2017-04-09T00:06:06.724Z,91.70
2017-04-09T00:07:06.069Z,91.70
2017-04-09T00:08:06.477Z,91.90
2017-04-09T00:09:06.938Z,91.90
2017-04-09T00:10:06.589Z,91.80
2017-04-09T00:12:05.694Z,91.70
2017-04-09T00:13:06.182Z,91.80
2017-04-09T00:14:05.518Z,91.80
2017-04-09T00:15:05.157Z,92.20
2017-04-09T00:16:04.868Z,91.70
2017-04-09T00:17:04.597Z,91.80
2017-04-09T00:18:05.621Z,91.70
2017-04-09T00:19:06.057Z,91.60
2017-04-09T00:20:06.892Z,91.70
2017-04-09T00:21:07.325Z,91.50
2017-04-09T00:22:07.111Z,91.50
2017-04-09T00:23:08.020Z,91.60
2017-04-09T00:24:08.173Z,91.60
2017-04-09T00:25:08.278Z,91.60
2017-04-09T00:26:08.424Z,91.50
2017-04-09T00:27:08.262Z,91.60
2017-04-09T00:28:08.782Z,91.60
2017-04-09T00:30:09.860Z,92.00
2017-04-09T00:31:09.169Z,91.60
2017-04-09T00:32:08.941Z,91.80
2017-04-09T00:33:08.530Z,91.80
2017-04-09T00:34:08.697Z,91.80
2017-04-09T00:35:08.149Z,91.80
2017-04-09T00:36:07.739Z,91.90
2017-04-09T00:37:07.225Z,92.30
2017-04-09T00:38:07.225Z,92.10
2017-04-09T00:39:07.641Z,92.20
2017-04-09T00:40:08.048Z,92.20
2017-04-09T00:41:08.238Z,92.60
2017-04-09T00:44:08.738Z,92.20
2017-04-09T00:45:08.532Z,92.30
2017-04-09T00:46:09.021Z,92.30
2017-04-09T00:47:09.253Z,92.90
2017-04-09T00:48:08.676Z,92.50
2017-04-09T00:49:08.765Z,92.50
2017-04-09T00:50:08.356Z,92.50
2017-04-09T00:51:07.854Z,92.60
2017-04-09T00:52:07.789Z,92.60
2017-04-09T00:53:07.518Z,92.50
2017-04-09T00:54:08.163Z,92.70
2017-04-09T00:55:08.300Z,92.60
2017-04-09T00:56:07.765Z,92.60
2017-04-09T00:57:08.071Z,92.80
2017-04-09T00:58:08.154Z,92.70
2017-04-09T00:59:08.373Z,92.60
2017-04-09T01:00:07.988Z,92.60
2017-04-09T01:01:08.168Z,92.70
2017-04-09T01:02:07.709Z,92.60
2017-04-09T01:03:08.166Z,92.70
2017-04-09T01:04:07.624Z,92.70
2017-04-09T01:05:07.749Z,93.10
2017-04-09T01:06:07.142Z,92.80
2017-04-09T01:07:06.649Z,92.90
2017-04-09T01:08:06.161Z,92.80
2017-04-09T01:09:05.849Z,92.80
2017-04-09T01:10:05.351Z,92.90
2017-04-09T01:11:04.722Z,92.90
2017-04-09T01:12:04.093Z,92.90
2017-04-09T01:13:04.402Z,92.80
2017-04-09T01:14:04.657Z,92.80
2017-04-09T01:15:04.162Z,92.80
2017-04-09T01:16:03.682Z,92.80
2017-04-09T01:17:03.162Z,92.80
2017-04-09T01:18:02.613Z,92.90
2017-04-09T01:19:02.792Z,92.90
2017-04-09T01:20:02.290Z,92.80
2017-04-09T01:21:02.246Z,92.90
2017-04-09T01:22:01.554Z,92.80
2017-04-09T01:23:01.086Z,92.80
2017-04-09T01:24:00.582Z,92.80
2017-04-09T01:25:00.861Z,93.00
2017-04-09T01:26:00.307Z,92.90
2017-04-09T01:27:00.519Z,92.80
2017-04-09T01:28:00.835Z,92.90
2017-04-09T01:29:00.944Z,92.90
2017-04-09T01:30:01.110Z,92.90
2017-04-09T01:31:00.488Z,92.90
2017-04-09T01:31:59.902Z,92.90
2017-04-09T01:32:59.413Z,93.00
2017-04-09T01:33:58.892Z,93.00
2017-04-09T01:34:58.267Z,92.90
2017-04-09T01:35:57.727Z,93.00
2017-04-09T01:36:57.288Z,93.00
2017-04-09T01:37:56.755Z,93.10
2017-04-09T01:38:56.275Z,93.10
2017-04-09T01:39:55.734Z,93.10
2017-04-09T01:40:55.201Z,93.10
2017-04-09T01:41:55.636Z,93.10
2017-04-09T01:42:55.022Z,93.20
2017-04-09T01:43:54.638Z,93.20
2017-04-09T01:44:54.221Z,93.10
2017-04-09T01:45:53.713Z,93.30
2017-04-09T01:46:53.201Z,93.20
2017-04-09T01:47:53.509Z,93.20
2017-04-09T01:48:53.783Z,93.20
2017-04-09T01:49:53.445Z,93.20
2017-04-09T01:50:53.142Z,93.30
2017-04-09T01:51:52.936Z,93.30
2017-04-09T01:52:52.942Z,93.30
2017-04-09T01:53:52.560Z,93.30
2017-04-09T01:54:52.201Z,93.30
2017-04-09T01:55:51.937Z,93.30
2017-04-09T01:56:52.466Z,93.30
2017-04-09T01:57:52.177Z,93.30
2017-04-09T01:58:51.779Z,93.30
2017-04-09T01:59:51.012Z,93.40
2017-04-09T02:00:50.449Z,93.30
2017-04-09T02:01:49.911Z,93.40
2017-04-09T02:02:49.452Z,93.40
2017-04-09T02:03:49.329Z,93.30
2017-04-09T02:04:49.684Z,93.50
2017-04-09T02:05:49.306Z,93.40
2017-04-09T02:06:48.781Z,93.40
2017-04-09T02:07:48.220Z,93.40
2017-04-09T02:08:48.441Z,93.30
2017-04-09T02:09:47.819Z,93.40
2017-04-09T02:10:47.339Z,93.40
2017-04-09T02:11:47.649Z,93.50
2017-04-09T02:12:47.846Z,93.40
2017-04-09T02:13:48.382Z,93.40
2017-04-09T02:14:48.581Z,93.40
2017-04-09T02:16:47.719Z,93.40
2017-04-09T02:17:47.492Z,93.40
2017-04-09T02:18:47.441Z,93.40
2017-04-09T02:19:47.346Z,93.50
2017-04-09T02:20:47.006Z,93.50
2017-04-09T02:21:46.657Z,93.50
2017-04-09T02:22:46.679Z,93.60
2017-04-09T02:23:46.147Z,93.60
2017-04-09T02:24:46.303Z,93.60
2017-04-09T02:25:47.063Z,93.60
2017-04-09T02:26:47.062Z,93.60
2017-04-09T02:27:46.568Z,93.60
2017-04-09T02:28:46.212Z,93.60
2017-04-09T02:29:46.012Z,93.60
2017-04-09T02:30:45.508Z,93.60
2017-04-09T02:31:45.247Z,93.50
2017-04-09T02:32:44.935Z,93.40
2017-04-09T02:33:45.227Z,93.60
2017-04-09T02:34:44.918Z,93.60
2017-04-09T02:35:44.420Z,93.60
2017-04-09T02:36:44.065Z,93.60
2017-04-09T02:37:43.628Z,93.60
2017-04-09T02:38:43.090Z,93.70
2017-04-09T02:39:42.521Z,93.60
2017-04-09T02:40:42.829Z,93.90
2017-04-09T02:41:42.491Z,93.70
2017-04-09T02:42:42.315Z,93.70
2017-04-09T02:43:41.796Z,93.80
2017-04-09T02:44:41.313Z,93.70
2017-04-09T02:46:40.722Z,93.70
2017-04-09T02:47:40.349Z,93.60
2017-04-09T02:48:39.907Z,93.60
2017-04-09T02:49:39.543Z,93.60
2017-04-09T02:50:38.939Z,93.60
2017-04-09T02:51:39.752Z,93.60
2017-04-09T02:52:40.243Z,93.80
2017-04-09T02:53:39.740Z,93.70
2017-04-09T02:54:39.650Z,93.70
2017-04-09T02:55:39.125Z,93.70
2017-04-09T02:56:38.858Z,93.70
2017-04-09T02:57:38.452Z,93.80
2017-04-09T02:58:38.792Z,93.80
2017-04-09T02:59:38.353Z,93.70
2017-04-09T03:00:38.729Z,93.80
2017-04-09T03:01:38.354Z,93.90
2017-04-09T03:02:37.997Z,94.00
2017-04-09T03:03:37.655Z,94.00
2017-04-09T03:04:37.077Z,94.00
2017-04-09T03:05:37.414Z,93.90
2017-04-09T03:06:37.092Z,93.90
2017-04-09T03:07:36.573Z,93.90
2017-04-09T03:08:35.924Z,94.30
2017-04-09T03:09:35.385Z,94.30
2017-04-09T03:10:34.816Z,94.30
2017-04-09T03:11:34.334Z,94.40
2017-04-09T03:12:34.307Z,94.40
2017-04-09T03:13:33.966Z,94.40
2017-04-09T03:14:34.269Z,94.40
2017-04-09T03:15:33.764Z,94.50
2017-04-09T03:16:34.160Z,94.40
2017-04-09T03:17:34.022Z,94.40
2017-04-09T03:18:33.685Z,94.40
2017-04-09T03:19:33.689Z,94.40
2017-04-09T03:20:33.403Z,94.40
2017-04-09T03:21:33.535Z,94.40
2017-04-09T03:22:33.101Z,94.50
2017-04-09T03:23:32.655Z,94.40
2017-04-09T03:24:32.522Z,94.40
2017-04-09T03:25:32.736Z,94.30
2017-04-09T03:26:32.155Z,94.10
2017-04-09T03:27:31.799Z,94.20
2017-04-09T03:28:31.834Z,94.20
2017-04-09T03:29:32.608Z,94.20
2017-04-09T03:30:32.150Z,94.10
2017-04-09T03:31:32.760Z,94.10
2017-04-09T03:32:33.273Z,94.20
2017-04-09T03:33:32.856Z,94.20
2017-04-09T03:34:33.145Z,94.20
2017-04-09T03:35:32.448Z,94.20
2017-04-09T03:36:32.114Z,94.20
2017-04-09T03:37:31.884Z,94.20
2017-04-09T03:38:32.318Z,94.20
2017-04-09T03:39:32.696Z,94.00
2017-04-09T03:40:32.669Z,94.10
2017-04-09T03:41:32.320Z,94.10
2017-04-09T03:42:31.853Z,94.10
2017-04-09T03:43:31.549Z,94.10
2017-04-09T03:44:31.455Z,94.00
2017-04-09T03:45:30.688Z,94.00
2017-04-09T03:46:30.436Z,93.90
2017-04-09T03:47:31.033Z,94.00
2017-04-09T03:48:30.366Z,93.90
2017-04-09T03:49:29.823Z,93.90
2017-04-09T03:50:29.566Z,94.00
2017-04-09T03:51:29.219Z,94.00
2017-04-09T03:52:28.925Z,94.00
2017-04-09T03:53:29.238Z,93.90
2017-04-09T03:54:29.519Z,94.00
2017-04-09T03:55:29.076Z,93.90
2017-04-09T03:56:28.942Z,94.00
2017-04-09T03:57:28.562Z,93.90
2017-04-09T03:58:29.210Z,93.90
2017-04-09T03:59:28.807Z,93.90
2017-04-09T04:00:28.403Z,94.10
2017-04-09T04:01:28.242Z,94.10
2017-04-09T04:02:27.644Z,94.10
2017-04-09T04:03:27.611Z,94.00
2017-04-09T04:04:27.174Z,94.00
2017-04-09T04:05:26.630Z,94.20
2017-04-09T04:06:26.160Z,94.10
2017-04-09T04:07:26.575Z,94.10
2017-04-09T04:08:26.906Z,93.90
2017-04-09T04:09:27.109Z,94.00
2017-04-09T04:10:27.600Z,94.20
2017-04-09T04:11:27.214Z,93.90
2017-04-09T04:12:26.804Z,93.90
2017-04-09T04:13:26.412Z,94.00
2017-04-09T04:14:25.961Z,93.90
2017-04-09T04:15:25.700Z,93.90
2017-04-09T04:16:25.188Z,93.90
2017-04-09T04:17:24.617Z,93.90
2017-04-09T04:18:24.928Z,93.90
2017-04-09T04:19:25.397Z,93.90
2017-04-09T04:20:25.079Z,94.00
2017-04-09T04:21:24.700Z,93.90
2017-04-09T04:22:24.104Z,93.90
2017-04-09T04:23:23.589Z,93.90
2017-04-09T04:24:23.161Z,93.80
2017-04-09T04:25:22.539Z,93.90
2017-04-09T04:26:22.343Z,94.00
2017-04-09T04:27:22.025Z,94.30
2017-04-09T04:28:22.462Z,94.10
2017-04-09T04:29:21.929Z,94.30
2017-04-09T04:31:20.999Z,94.10
2017-04-09T04:32:20.450Z,94.10
2017-04-09T04:33:19.904Z,94.10
2017-04-09T04:34:19.409Z,94.20
2017-04-09T04:35:19.862Z,94.10
2017-04-09T04:36:20.219Z,94.10
2017-04-09T04:37:19.737Z,94.20
2017-04-09T04:38:20.266Z,94.10
2017-04-09T04:39:20.537Z,94.20
2017-04-09T04:40:20.277Z,94.30
2017-04-09T04:41:20.440Z,94.30
2017-04-09T04:42:19.966Z,94.30
2017-04-09T04:43:19.480Z,94.60
2017-04-09T04:44:19.886Z,94.20
2017-04-09T04:45:20.292Z,94.30
2017-04-09T04:46:19.956Z,94.20
2017-04-09T04:47:19.676Z,94.30
2017-04-09T04:48:19.200Z,94.30
2017-04-09T04:49:18.696Z,94.40
2017-04-09T04:50:19.112Z,94.70
2017-04-09T04:51:19.500Z,94.20
2017-04-09T04:52:19.087Z,94.30
2017-04-09T04:53:18.694Z,94.20
2017-04-09T04:54:18.407Z,94.20
2017-04-09T04:55:18.117Z,94.20
2017-04-09T04:56:17.854Z,94.20
2017-04-09T04:57:17.401Z,94.10
2017-04-09T04:58:17.093Z,94.10
2017-04-09T04:59:16.703Z,94.00
2017-04-09T05:00:16.253Z,93.90
2017-04-09T05:01:15.853Z,93.90
2017-04-09T05:02:15.552Z,93.70
2017-04-09T05:03:14.980Z,93.60
2017-04-09T05:04:14.471Z,93.50
2017-04-09T05:05:14.001Z,93.30
2017-04-09T05:06:14.418Z,93.30
2017-04-09T05:07:13.929Z,93.10
2017-04-09T05:08:14.395Z,93.00
2017-04-09T05:09:14.135Z,92.80
2017-04-09T05:10:14.457Z,92.70
2017-04-09T05:11:14.714Z,92.50
2017-04-09T05:12:14.264Z,92.40
2017-04-09T05:13:14.812Z,92.30
2017-04-09T05:14:14.247Z,92.20
2017-04-09T05:15:13.895Z,92.00
2017-04-09T05:16:13.581Z,92.00
2017-04-09T05:17:14.005Z,91.80
2017-04-09T05:18:14.433Z,91.50
2017-04-09T05:19:13.930Z,91.40
2017-04-09T05:20:13.516Z,91.40
2017-04-09T05:21:13.286Z,91.80
2017-04-09T05:23:13.413Z,91.00
2017-04-09T05:24:13.233Z,90.90
2017-04-09T05:25:13.537Z,90.80
2017-04-09T05:26:14.045Z,90.90
2017-04-09T05:27:13.741Z,90.40
2017-04-09T05:28:13.338Z,90.40
2017-04-09T05:29:12.804Z,90.20
2017-04-09T05:30:12.786Z,90.10
2017-04-09T05:31:12.205Z,90.00
2017-04-09T05:32:11.733Z,89.50
2017-04-09T05:33:11.162Z,89.00
2017-04-09T05:34:11.442Z,89.00
2017-04-09T05:36:11.813Z,88.40
2017-04-09T05:37:11.344Z,88.30
2017-04-09T05:38:10.856Z,88.10
2017-04-09T05:39:10.454Z,87.80
2017-04-09T05:40:09.985Z,87.30
2017-04-09T05:41:10.661Z,87.00
2017-04-09T05:42:11.027Z,86.60
2017-04-09T05:43:11.013Z,86.50
2017-04-09T05:44:10.547Z,86.20
2017-04-09T05:45:10.485Z,86.10
2017-04-09T05:46:10.133Z,85.40
2017-04-09T05:47:09.777Z,85.80
2017-04-09T05:48:09.515Z,85.40
2017-04-09T05:49:10.345Z,85.40
2017-04-09T05:50:09.913Z,85.50
2017-04-09T05:51:09.619Z,84.70
2017-04-09T05:52:09.446Z,84.60
2017-04-09T05:53:09.868Z,85.10
2017-04-09T05:54:09.513Z,84.10
2017-04-09T05:55:09.013Z,82.20
2017-04-09T05:56:08.713Z,75.50
2017-04-09T05:57:08.141Z,69.10
2017-04-09T05:58:08.435Z,63.00
2017-04-09T05:59:08.109Z,57.90
2017-04-09T06:00:07.517Z,54.50
2017-04-09T06:01:07.142Z,50.90
2017-04-09T06:02:07.547Z,50.40
2017-04-09T06:03:07.170Z,50.80
2017-04-09T06:04:07.699Z,53.20
2017-04-09T06:05:07.470Z,55.70
2017-04-09T06:06:06.931Z,58.20
2017-04-09T06:07:06.328Z,60.80
2017-04-09T06:08:05.698Z,62.40
2017-04-09T06:09:05.414Z,64.50
2017-04-09T06:10:04.837Z,66.70
2017-04-09T06:11:04.286Z,68.40
2017-04-09T06:12:03.958Z,69.60
2017-04-09T06:13:04.150Z,70.90
2017-04-09T06:14:03.619Z,71.80
2017-04-09T06:15:02.951Z,72.40
2017-04-09T06:16:03.096Z,72.70
2017-04-09T06:17:02.794Z,72.30
2017-04-09T06:18:02.262Z,73.10
2017-04-09T06:19:02.456Z,75.10
2017-04-09T06:20:01.881Z,75.10
2017-04-09T06:21:02.052Z,74.80
2017-04-09T06:22:01.375Z,74.10
2017-04-09T06:23:01.567Z,74.60
2017-04-09T06:24:00.951Z,75.00
2017-04-09T06:25:00.381Z,74.70
2017-04-09T06:26:00.576Z,74.50
2017-04-09T06:27:00.773Z,76.10
2017-04-09T06:28:00.176Z,75.50
2017-04-09T06:28:59.906Z,74.20
2017-04-09T06:29:59.371Z,74.40
2017-04-09T06:30:58.773Z,72.50
2017-04-09T06:31:58.810Z,73.90
2017-04-09T06:32:58.281Z,73.90
2017-04-09T06:33:58.480Z,74.50
2017-04-09T06:34:57.926Z,73.20
2017-04-09T06:35:57.264Z,73.40
2017-04-09T06:36:56.789Z,74.70
2017-04-09T06:37:56.243Z,74.30
2017-04-09T06:38:55.528Z,74.50
2017-04-09T06:39:55.007Z,72.50
2017-04-09T06:40:54.790Z,72.30
2017-04-09T06:41:54.288Z,72.60
2017-04-09T06:42:53.666Z,71.70
2017-04-09T06:43:53.109Z,69.30
2017-04-09T06:44:52.572Z,68.80
2017-04-09T06:45:52.145Z,67.50
2017-04-09T06:46:51.761Z,67.20
2017-04-09T06:47:51.224Z,66.40
2017-04-09T06:48:51.360Z,65.30
2017-04-09T06:49:50.803Z,65.40
2017-04-09T06:50:50.261Z,65.00
2017-04-09T06:51:49.707Z,64.10
2017-04-09T06:52:50.155Z,64.20
2017-04-09T06:53:49.600Z,62.10
2017-04-09T06:54:49.061Z,61.00
2017-04-09T06:55:48.353Z,61.80
2017-04-09T06:56:47.806Z,61.00
2017-04-09T06:57:48.019Z,59.60
2017-04-09T06:58:48.446Z,60.00
2017-04-09T06:59:47.900Z,59.90
2017-04-09T07:00:47.404Z,58.40
2017-04-09T07:01:46.889Z,57.90
2017-04-09T07:02:48.446Z,57.40
2017-04-09T07:03:47.922Z,57.50
2017-04-09T07:04:47.442Z,55.10
2017-04-09T07:05:46.836Z,55.40
2017-04-09T07:06:46.263Z,55.20
2017-04-09T07:07:45.718Z,54.80
2017-04-09T07:08:45.150Z,54.70
2017-04-09T07:09:44.893Z,55.00
2017-04-09T07:10:44.323Z,54.00
2017-04-09T07:11:44.515Z,54.70
2017-04-09T07:12:43.754Z,55.40
2017-04-09T07:13:43.191Z,56.10
2017-04-09T07:14:42.662Z,55.90
2017-04-09T07:15:42.142Z,56.00
2017-04-09T07:16:41.514Z,53.50
2017-04-09T07:17:41.707Z,53.40
2017-04-09T07:18:41.896Z,57.10
2017-04-09T07:19:41.336Z,53.70
2017-04-09T07:20:40.800Z,54.30
2017-04-09T07:21:40.540Z,54.40
2017-04-09T07:22:39.911Z,54.50
2017-04-09T07:23:40.122Z,53.40
2017-04-09T07:24:40.326Z,53.40
2017-04-09T07:25:40.519Z,54.20
2017-04-09T07:26:39.817Z,54.10
2017-04-09T07:27:39.493Z,52.60
2017-04-09T07:28:39.687Z,52.80
2017-04-09T07:29:39.104Z,52.20
2017-04-09T07:30:38.539Z,51.40
2017-04-09T07:31:38.715Z,52.00
2017-04-09T07:32:38.152Z,51.10
2017-04-09T07:33:37.470Z,51.90
2017-04-09T07:34:36.909Z,52.90
2017-04-09T07:35:36.334Z,51.50
2017-04-09T07:36:36.560Z,52.10
2017-04-09T07:37:36.029Z,50.70
2017-04-09T07:38:36.580Z,51.20
2017-04-09T07:39:36.547Z,50.90
2017-04-09T07:40:36.746Z,51.90
2017-04-09T07:41:36.115Z,51.10
2017-04-09T07:42:35.580Z,51.90
2017-04-09T07:43:34.994Z,52.80
2017-04-09T07:44:34.484Z,52.40
2017-04-09T07:45:33.997Z,51.10
2017-04-09T07:46:33.438Z,52.00
2017-04-09T07:47:33.581Z,53.20
2017-04-09T07:48:33.053Z,52.70
2017-04-09T07:49:32.649Z,52.50
2017-04-09T07:50:32.452Z,50.50
2017-04-09T07:51:31.860Z,51.10
2017-04-09T07:52:31.427Z,50.20
2017-04-09T07:53:31.597Z,49.20
2017-04-09T07:54:31.039Z,50.50
2017-04-09T07:55:31.273Z,48.40
2017-04-09T07:56:30.757Z,47.50
2017-04-09T07:57:30.205Z,48.60
2017-04-09T07:58:29.676Z,47.80
2017-04-09T07:59:29.344Z,46.50
2017-04-09T08:00:28.795Z,46.50
2017-04-09T08:01:28.234Z,47.20
2017-04-09T08:02:27.668Z,47.60
2017-04-09T08:03:27.126Z,46.70
2017-04-09T08:04:26.557Z,47.20
2017-04-09T08:05:26.028Z,46.70
2017-04-09T08:06:25.497Z,46.70
2017-04-09T08:07:26.055Z,47.10
2017-04-09T08:08:25.469Z,45.00
2017-04-09T08:09:24.922Z,45.10
2017-04-09T08:10:24.371Z,45.10
2017-04-09T08:11:23.958Z,45.20
2017-04-09T08:12:23.418Z,44.80
2017-04-09T08:13:22.839Z,43.90
2017-04-09T08:14:22.271Z,44.80
2017-04-09T08:15:22.901Z,43.80
2017-04-09T08:16:23.081Z,44.40
2017-04-09T08:17:22.461Z,44.50
2017-04-09T08:18:22.343Z,44.50
2017-04-09T08:19:21.779Z,44.70
2017-04-09T08:20:21.065Z,45.10
2017-04-09T08:21:20.366Z,45.50
2017-04-09T08:22:20.385Z,45.10
2017-04-09T08:23:19.756Z,45.20
2017-04-09T08:24:19.134Z,44.20
2017-04-09T08:25:18.371Z,44.30
2017-04-09T08:26:17.638Z,44.50
2017-04-09T08:27:17.011Z,43.80
2017-04-09T08:28:16.264Z,43.90
2017-04-09T08:29:15.558Z,43.20
2017-04-09T08:30:14.869Z,43.40
2017-04-09T08:31:14.136Z,43.70
2017-04-09T08:32:13.408Z,43.10
2017-04-09T08:33:13.443Z,43.40
2017-04-09T08:34:12.698Z,45.20
2017-04-09T08:35:11.947Z,44.60
2017-04-09T08:36:11.293Z,44.30
2017-04-09T08:37:10.606Z,43.00
2017-04-09T08:38:09.865Z,44.50
2017-04-09T08:39:10.319Z,44.40
2017-04-09T08:40:09.584Z,44.30
2017-04-09T08:41:08.890Z,44.10
2017-04-09T08:42:08.317Z,43.90
2017-04-09T08:43:07.628Z,44.40
2017-04-09T08:44:07.618Z,44.10
2017-04-09T08:45:06.887Z,43.30
2017-04-09T08:46:06.145Z,42.90
2017-04-09T08:47:05.416Z,42.40
2017-04-09T08:48:05.430Z,43.30
2017-04-09T08:49:05.526Z,44.00
2017-04-09T08:50:05.517Z,45.30
2017-04-09T08:51:04.782Z,43.90
2017-04-09T08:52:04.410Z,43.60
2017-04-09T08:53:03.670Z,44.40
2017-04-09T08:54:03.054Z,43.20
2017-04-09T08:55:02.314Z,43.30
2017-04-09T08:56:01.582Z,43.80
2017-04-09T08:57:01.578Z,43.40
2017-04-09T08:58:01.179Z,43.50
2017-04-09T08:59:00.429Z,43.10
2017-04-09T09:00:00.442Z,43.00
2017-04-09T09:00:59.778Z,42.50
2017-04-09T09:01:59.802Z,42.00
2017-04-09T09:02:59.098Z,42.20
2017-04-09T09:03:58.401Z,41.00
2017-04-09T09:04:57.681Z,42.40
2017-04-09T09:05:56.982Z,41.70
2017-04-09T09:06:56.885Z,41.40
2017-04-09T09:07:56.137Z,41.50
2017-04-09T09:08:55.393Z,42.30
2017-04-09T09:09:54.662Z,41.20
2017-04-09T09:10:53.933Z,41.10
2017-04-09T09:11:53.200Z,40.10
2017-04-09T09:12:52.495Z,39.80
2017-04-09T09:13:52.495Z,40.80
2017-04-09T09:14:52.086Z,40.00
2017-04-09T09:15:51.406Z,39.30
2017-04-09T09:16:51.396Z,40.00
2017-04-09T09:17:51.421Z,40.00
2017-04-09T09:18:50.686Z,39.20
2017-04-09T09:19:50.807Z,39.70
2017-04-09T09:20:50.079Z,38.30
2017-04-09T09:21:49.445Z,38.60
2017-04-09T09:22:48.681Z,38.80
2017-04-09T09:23:48.684Z,39.10
2017-04-09T09:24:48.737Z,38.90
2017-04-09T09:25:47.994Z,38.60
2017-04-09T09:26:48.083Z,38.80
2017-04-09T09:27:47.345Z,38.50
2017-04-09T09:28:46.594Z,38.80
2017-04-09T09:29:45.941Z,38.70
2017-04-09T09:30:45.214Z,38.50
2017-04-09T09:31:44.469Z,37.80
2017-04-09T09:32:43.850Z,39.20
2017-04-09T09:33:43.890Z,38.40
2017-04-09T09:34:43.163Z,38.10
2017-04-09T09:35:42.427Z,37.90
2017-04-09T09:36:42.502Z,37.90
2017-04-09T09:37:41.789Z,38.10
2017-04-09T09:38:41.048Z,37.30
2017-04-09T09:39:40.352Z,36.80
2017-04-09T09:40:39.594Z,36.20
2017-04-09T09:41:39.685Z,36.60
2017-04-09T09:42:38.953Z,36.90
2017-04-09T09:43:38.238Z,37.90
2017-04-09T09:44:37.523Z,36.90
2017-04-09T09:45:36.817Z,36.90
2017-04-09T09:46:36.226Z,37.00
2017-04-09T09:47:35.629Z,36.70
2017-04-09T09:48:35.062Z,36.20
2017-04-09T09:49:35.114Z,36.40
2017-04-09T09:50:35.694Z,36.40
2017-04-09T09:51:35.698Z,36.40
2017-04-09T09:52:34.990Z,36.50
2017-04-09T09:53:35.269Z,36.30
2017-04-09T09:54:34.539Z,36.40
2017-04-09T09:55:33.844Z,36.60
2017-04-09T09:56:33.307Z,36.40
2017-04-09T09:57:32.652Z,35.20
2017-04-09T09:58:32.790Z,34.60
2017-04-09T09:59:32.094Z,34.90
2017-04-09T10:00:31.393Z,35.20
2017-04-09T10:01:30.677Z,34.80
2017-04-09T10:02:30.198Z,34.50
2017-04-09T10:03:29.486Z,34.00
2017-04-09T10:04:28.738Z,34.50
2017-04-09T10:05:29.066Z,34.70
2017-04-09T10:06:28.374Z,35.60
2017-04-09T10:07:27.706Z,35.50
2017-04-09T10:08:27.790Z,35.60
2017-04-09T10:09:27.064Z,35.60
2017-04-09T10:10:26.425Z,35.80
2017-04-09T10:11:25.742Z,34.30
2017-04-09T10:12:25.548Z,34.30
2017-04-09T10:13:24.808Z,34.90
2017-04-09T10:14:24.797Z,36.00
2017-04-09T10:15:24.827Z,36.90
2017-04-09T10:16:24.092Z,36.50
2017-04-09T10:17:24.213Z,36.40
2017-04-09T10:18:24.210Z,36.10
2017-04-09T10:19:24.370Z,36.70
2017-04-09T10:20:23.979Z,37.40
2017-04-09T10:21:23.729Z,36.60
2017-04-09T10:22:24.149Z,35.70
2017-04-09T10:23:23.895Z,36.10
2017-04-09T10:24:23.336Z,35.40
2017-04-09T10:25:22.741Z,36.30
2017-04-09T10:26:23.221Z,36.40
2017-04-09T10:27:22.883Z,36.30
2017-04-09T10:28:22.700Z,35.30
2017-04-09T10:29:22.361Z,35.90
2017-04-09T10:30:21.757Z,36.20
2017-04-09T10:31:21.821Z,35.70
2017-04-09T10:32:21.277Z,36.20
2017-04-09T10:33:20.669Z,36.10
2017-04-09T10:34:20.014Z,36.00
2017-04-09T10:35:19.739Z,37.20
2017-04-09T10:36:19.311Z,36.30
2017-04-09T10:37:19.058Z,36.50
2017-04-09T10:38:18.403Z,35.60
2017-04-09T10:39:17.958Z,34.60
2017-04-09T10:40:17.921Z,35.00
2017-04-09T10:41:18.280Z,34.90
2017-04-09T10:42:17.718Z,34.10
2017-04-09T10:43:17.489Z,35.00
2017-04-09T10:44:17.289Z,33.90
2017-04-09T10:45:17.068Z,34.40
2017-04-09T10:46:16.754Z,35.80
2017-04-09T10:47:16.070Z,36.70
2017-04-09T10:48:15.420Z,37.10
2017-04-09T10:49:15.026Z,37.80
2017-04-09T10:50:15.110Z,37.70
2017-04-09T10:51:14.710Z,37.90
2017-04-09T10:52:14.137Z,37.30
2017-04-09T10:53:14.557Z,37.30
2017-04-09T10:54:13.850Z,36.50
2017-04-09T10:55:13.635Z,36.00
2017-04-09T10:56:14.013Z,35.90
2017-04-09T10:57:13.788Z,36.90
2017-04-09T10:58:13.533Z,36.80
2017-04-09T10:59:13.257Z,36.10
2017-04-09T11:00:13.797Z,35.80
2017-04-09T11:01:13.708Z,36.10
2017-04-09T11:02:13.514Z,36.30
2017-04-09T11:03:13.411Z,36.20
2017-04-09T11:04:12.740Z,35.80
2017-04-09T11:05:12.507Z,34.70
2017-04-09T11:06:12.264Z,34.60
2017-04-09T11:07:18.558Z,34.80
2017-04-09T11:08:17.950Z,36.20
2017-04-09T11:09:17.314Z,35.00
2017-04-09T11:10:17.130Z,35.20
2017-04-09T11:11:17.109Z,35.40
2017-04-09T11:12:17.454Z,34.30
2017-04-09T11:13:17.657Z,33.90
2017-04-09T11:14:17.685Z,34.00
2017-04-09T11:15:17.269Z,33.90
2017-04-09T11:16:17.780Z,33.60
2017-04-09T11:17:18.174Z,33.50
2017-04-09T11:18:17.948Z,34.30
2017-04-09T11:19:17.436Z,32.80
2017-04-09T11:20:16.786Z,33.00
2017-04-09T11:21:17.137Z,32.70
2017-04-09T11:22:16.620Z,32.70
2017-04-09T11:23:16.420Z,32.80
2017-04-09T11:24:16.462Z,33.00
2017-04-09T11:25:15.778Z,31.80
2017-04-09T11:26:15.379Z,31.90
2017-04-09T11:27:15.864Z,31.30
2017-04-09T11:28:15.206Z,32.10
2017-04-09T11:29:15.360Z,32.50
2017-04-09T11:30:14.655Z,32.50
2017-04-09T11:31:14.333Z,32.50
2017-04-09T11:32:13.630Z,33.30
2017-04-09T11:33:12.946Z,32.50
2017-04-09T11:34:12.224Z,31.50
2017-04-09T11:35:11.504Z,31.20
2017-04-09T11:36:10.777Z,32.00
2017-04-09T11:37:10.133Z,31.00
2017-04-09T11:38:09.408Z,30.90
2017-04-09T11:39:09.020Z,31.30
2017-04-09T11:40:08.319Z,30.40
2017-04-09T11:41:07.591Z,30.00
2017-04-09T11:42:07.229Z,29.80
2017-04-09T11:43:07.837Z,29.30
2017-04-09T11:44:07.832Z,29.10
2017-04-09T11:45:07.439Z,29.60
2017-04-09T11:46:06.831Z,29.10
2017-04-09T11:47:06.103Z,28.70
2017-04-09T11:48:05.394Z,28.40
2017-04-09T11:49:04.656Z,28.60
2017-04-09T11:50:04.301Z,29.10
2017-04-09T11:51:03.764Z,29.20
2017-04-09T11:52:03.021Z,28.70
2017-04-09T11:53:02.363Z,28.30
2017-04-09T11:54:01.663Z,28.40
2017-04-09T11:55:00.981Z,28.40
2017-04-09T11:56:01.081Z,29.10
2017-04-09T11:57:01.090Z,28.40
2017-04-09T11:58:00.351Z,28.60
2017-04-09T11:58:59.641Z,28.20
2017-04-09T11:59:58.927Z,28.20
2017-04-09T12:00:58.277Z,28.60
2017-04-09T12:01:57.800Z,27.90
2017-04-09T12:02:57.140Z,27.60
2017-04-09T12:03:56.446Z,28.10
2017-04-09T12:04:57.243Z,28.30
2017-04-09T12:05:56.668Z,28.20
2017-04-09T12:06:56.745Z,29.60
2017-04-09T12:07:56.221Z,29.10
2017-04-09T12:08:55.880Z,29.80
2017-04-09T12:09:56.194Z,29.30
2017-04-09T12:10:55.986Z,29.50
2017-04-09T12:11:55.750Z,28.90
2017-04-09T12:12:55.381Z,28.90
2017-04-09T12:13:55.727Z,28.40
2017-04-09T12:14:55.891Z,28.80
2017-04-09T12:15:56.138Z,28.80
2017-04-09T12:16:55.601Z,29.00
2017-04-09T12:17:55.990Z,28.90
2017-04-09T12:18:55.422Z,30.00
2017-04-09T12:19:55.461Z,29.70
2017-04-09T12:20:55.542Z,29.40
2017-04-09T12:21:55.935Z,29.60
2017-04-09T12:22:55.673Z,29.80
2017-04-09T12:23:55.286Z,30.50
2017-04-09T12:24:55.533Z,30.30
2017-04-09T12:25:55.667Z,31.40
2017-04-09T12:26:55.985Z,30.50
2017-04-09T12:27:55.571Z,30.40
2017-04-09T12:28:55.662Z,29.80
2017-04-09T12:29:55.270Z,29.80
2017-04-09T12:30:55.486Z,30.10
2017-04-09T12:31:54.852Z,30.20
2017-04-09T12:32:54.655Z,30.40
2017-04-09T12:33:54.117Z,30.40
2017-04-09T12:34:53.734Z,30.50
2017-04-09T12:35:53.408Z,30.30
2017-04-09T12:36:53.495Z,30.00
2017-04-09T12:37:53.188Z,30.30
2017-04-09T12:38:53.219Z,29.30
2017-04-09T12:39:54.426Z,30.00
2017-04-09T12:40:53.977Z,29.70
2017-04-09T12:41:54.652Z,29.40
2017-04-09T12:42:54.822Z,29.10
2017-04-09T12:43:55.370Z,29.30
2017-04-09T12:44:54.953Z,28.60
2017-04-09T12:45:54.506Z,29.00
2017-04-09T12:46:54.549Z,29.60
2017-04-09T12:47:54.012Z,29.00
2017-04-09T12:48:53.383Z,28.50
2017-04-09T12:49:53.494Z,28.50
2017-04-09T12:50:52.966Z,28.60
2017-04-09T12:51:52.282Z,28.70
2017-04-09T12:52:52.519Z,28.60
2017-04-09T12:53:52.083Z,28.70
2017-04-09T12:54:51.787Z,28.90
2017-04-09T12:55:51.590Z,28.60
2017-04-09T12:56:51.583Z,28.60
2017-04-09T12:57:50.893Z,29.50